createdAt,value
2018-12-05T00:00:18.974Z,61.30
2018-12-05T00:01:18.963Z,60.70
2018-12-05T00:02:19.002Z,59.40
2018-12-05T00:03:18.946Z,62.30
2018-12-05T00:04:18.934Z,59.90
2018-12-05T00:05:18.916Z,56.80
2018-12-05T00:06:18.906Z,64.70
2018-12-05T00:07:18.897Z,59.10
2018-12-05T00:08:18.946Z,62.80
2018-12-05T00:09:18.879Z,58.70
2018-12-05T00:10:18.866Z,57.70
2018-12-05T00:11:18.852Z,60.60
2018-12-05T00:12:18.871Z,60.20
2018-12-05T00:13:18.838Z,65.30
2018-12-05T00:14:18.829Z,59.80
2018-12-05T00:15:18.819Z,56.10
2018-12-05T00:16:18.811Z,60.80
2018-12-05T00:17:18.810Z,59.30
2018-12-05T00:18:18.804Z,57.90
2018-12-05T00:19:18.775Z,55.50
2018-12-05T00:20:18.793Z,54.90
2018-12-05T00:21:18.751Z,57.80
2018-12-05T00:22:18.763Z,51.40
2018-12-05T00:23:18.727Z,54.20
2018-12-05T00:24:18.721Z,56.30
2018-12-05T00:25:18.700Z,55.60
2018-12-05T00:26:18.694Z,58.10
2018-12-05T00:27:18.687Z,62.60
2018-12-05T00:28:18.699Z,56.90
2018-12-05T00:29:18.665Z,58.90
2018-12-05T00:30:18.651Z,59.10
2018-12-05T00:31:18.654Z,54.20
2018-12-05T00:32:18.643Z,53.40
2018-12-05T00:33:18.621Z,58.90
2018-12-05T00:34:18.617Z,57.10
2018-12-05T00:35:18.609Z,52.80
2018-12-05T00:36:18.594Z,52.30
2018-12-05T00:37:18.604Z,55.40
2018-12-05T00:38:18.567Z,57.10
2018-12-05T00:39:18.566Z,53.30
2018-12-05T00:40:18.543Z,54.00
2018-12-05T00:41:18.551Z,50.80
2018-12-05T00:42:18.552Z,52.20
2018-12-05T00:43:18.510Z,56.10
2018-12-05T00:44:20.107Z,50.20
2018-12-05T00:45:18.491Z,52.60
2018-12-05T00:46:18.488Z,49.60
2018-12-05T00:47:18.474Z,54.10
2018-12-05T00:48:18.483Z,49.60
2018-12-05T00:49:18.446Z,51.10
2018-12-05T00:50:18.433Z,48.90
2018-12-05T00:51:18.423Z,48.60
2018-12-05T00:52:18.432Z,50.00
2018-12-05T00:53:18.406Z,48.30
2018-12-05T00:54:18.401Z,42.80
2018-12-05T00:55:18.389Z,47.70
2018-12-05T00:56:18.374Z,44.80
2018-12-05T00:57:18.407Z,50.20
2018-12-05T00:58:18.349Z,48.10
2018-12-05T00:59:18.345Z,45.80
2018-12-05T01:00:18.334Z,48.80
2018-12-05T01:01:18.331Z,42.90
2018-12-05T01:02:18.309Z,45.30
2018-12-05T01:03:18.326Z,46.20
2018-12-05T01:04:18.285Z,44.50
2018-12-05T01:05:18.280Z,42.20
2018-12-05T01:06:18.270Z,46.60
2018-12-05T01:07:18.279Z,45.60
2018-12-05T01:08:18.247Z,42.30
2018-12-05T01:09:18.242Z,44.80
2018-12-05T01:10:18.223Z,47.40
2018-12-05T01:11:18.218Z,43.00
2018-12-05T01:12:18.237Z,37.50
2018-12-05T01:13:18.212Z,42.80
2018-12-05T01:14:18.190Z,41.00
2018-12-05T01:15:18.167Z,44.20
2018-12-05T01:16:18.159Z,36.10
2018-12-05T01:17:18.188Z,38.70
2018-12-05T01:18:18.150Z,40.60
2018-12-05T01:19:18.132Z,41.40
2018-12-05T01:20:18.127Z,39.30
2018-12-05T01:21:18.115Z,43.20
2018-12-05T01:22:18.118Z,38.90
2018-12-05T01:23:18.114Z,38.30
2018-12-05T01:24:18.083Z,40.20
2018-12-05T01:25:18.065Z,43.80
2018-12-05T01:26:18.057Z,43.30
2018-12-05T01:27:18.064Z,38.90
2018-12-05T01:28:18.033Z,42.40
2018-12-05T01:29:18.019Z,37.10
2018-12-05T01:30:18.012Z,36.60
2018-12-05T01:31:18.012Z,35.70
2018-12-05T01:32:18.032Z,40.00
2018-12-05T01:33:17.978Z,40.40
2018-12-05T01:34:17.964Z,40.00
2018-12-05T01:35:17.968Z,37.20
2018-12-05T01:36:17.947Z,40.90
2018-12-05T01:37:17.957Z,38.90
2018-12-05T01:38:17.967Z,40.00
2018-12-05T01:39:17.928Z,39.10
2018-12-05T01:40:17.905Z,40.30
2018-12-05T01:41:17.892Z,52.40
2018-12-05T01:42:17.907Z,38.30
2018-12-05T01:43:17.875Z,37.50
2018-12-05T01:44:17.859Z,35.00
2018-12-05T01:45:17.904Z,40.10
2018-12-05T01:46:17.851Z,41.60
2018-12-05T01:47:17.856Z,47.60
2018-12-05T01:48:17.840Z,38.40
2018-12-05T01:49:17.833Z,43.00
2018-12-05T01:50:17.843Z,40.70
2018-12-05T01:51:17.819Z,40.80
2018-12-05T01:52:17.837Z,37.40
2018-12-05T01:53:17.794Z,45.60
2018-12-05T01:54:17.787Z,49.60
2018-12-05T01:55:17.789Z,45.30
2018-12-05T01:56:17.779Z,43.10
2018-12-05T01:57:17.806Z,43.20
2018-12-05T01:58:17.764Z,43.60
2018-12-05T01:59:17.812Z,38.70
2018-12-05T02:00:17.750Z,41.30
2018-12-05T02:01:17.733Z,42.20
2018-12-05T02:02:17.728Z,38.00
2018-12-05T02:03:17.708Z,38.20
2018-12-05T02:04:17.701Z,39.30
2018-12-05T02:05:17.719Z,42.40
2018-12-05T02:06:17.667Z,34.90
2018-12-05T02:07:17.665Z,37.40
2018-12-05T02:08:17.665Z,36.50
2018-12-05T02:09:17.651Z,48.90
2018-12-05T02:10:17.643Z,42.70
2018-12-05T02:11:17.673Z,41.10
2018-12-05T02:12:17.651Z,43.10
2018-12-05T02:13:17.607Z,35.00
2018-12-05T02:14:17.621Z,47.40
2018-12-05T02:15:17.577Z,39.10
2018-12-05T02:16:17.531Z,41.90
2018-12-05T02:17:17.535Z,33.80
2018-12-05T02:18:17.502Z,39.00
2018-12-05T02:19:17.485Z,39.60
2018-12-05T02:20:17.477Z,42.90
2018-12-05T02:21:17.469Z,33.20
2018-12-05T02:22:17.461Z,40.20
2018-12-05T02:23:17.475Z,39.50
2018-12-05T02:24:17.437Z,39.70
2018-12-05T02:25:17.422Z,36.70
2018-12-05T02:26:17.411Z,35.40
2018-12-05T02:27:17.399Z,38.90
2018-12-05T02:28:17.392Z,37.90
2018-12-05T02:29:17.401Z,41.80
2018-12-05T02:30:17.401Z,36.70
2018-12-05T02:31:17.365Z,39.70
2018-12-05T02:32:17.352Z,40.00
2018-12-05T02:33:17.339Z,44.90
2018-12-05T02:34:17.325Z,41.30
2018-12-05T02:35:17.324Z,40.40
2018-12-05T02:36:17.329Z,33.90
2018-12-05T02:37:17.310Z,39.30
2018-12-05T02:38:17.297Z,37.40
2018-12-05T02:39:17.272Z,40.60
2018-12-05T02:40:17.293Z,36.50
2018-12-05T02:41:17.256Z,36.40
2018-12-05T02:42:17.246Z,41.20
2018-12-05T02:43:17.290Z,36.30
2018-12-05T02:44:17.228Z,40.10
2018-12-05T02:45:17.214Z,38.10
2018-12-05T02:46:17.218Z,38.50
2018-12-05T02:47:17.223Z,39.20
2018-12-05T02:48:17.181Z,40.20
2018-12-05T02:49:17.172Z,35.30
2018-12-05T02:50:17.160Z,36.30
2018-12-05T02:51:17.150Z,38.40
2018-12-05T02:52:17.160Z,37.80
2018-12-05T02:53:17.135Z,42.00
2018-12-05T02:54:17.139Z,44.50
2018-12-05T02:55:17.109Z,38.40
2018-12-05T02:56:17.098Z,38.20
2018-12-05T02:57:17.080Z,45.20
2018-12-05T02:58:17.095Z,42.70
2018-12-05T02:59:17.062Z,41.50
2018-12-05T03:00:17.050Z,37.50
2018-12-05T03:01:17.044Z,42.60
2018-12-05T03:02:17.038Z,41.40
2018-12-05T03:03:17.022Z,37.80
2018-12-05T03:04:17.038Z,37.40
2018-12-05T03:05:16.997Z,38.20
2018-12-05T03:06:16.990Z,39.00
2018-12-05T03:07:16.982Z,41.90
2018-12-05T03:08:16.973Z,38.40
2018-12-05T03:09:16.953Z,40.00
2018-12-05T03:10:16.964Z,34.10
2018-12-05T03:11:16.935Z,38.20
2018-12-05T03:12:16.922Z,37.60
2018-12-05T03:13:16.918Z,40.20
2018-12-05T03:14:16.926Z,38.50
2018-12-05T03:15:16.892Z,42.60
2018-12-05T03:16:16.890Z,39.10
2018-12-05T03:17:16.888Z,35.20
2018-12-05T03:18:16.861Z,35.50
2018-12-05T03:19:16.851Z,37.30
2018-12-05T03:20:16.870Z,37.10
2018-12-05T03:21:16.831Z,36.10
2018-12-05T03:22:16.846Z,33.70
2018-12-05T03:23:16.809Z,31.10
2018-12-05T03:24:16.794Z,33.30
2018-12-05T03:25:16.788Z,31.30
2018-12-05T03:26:16.777Z,31.10
2018-12-05T03:27:16.766Z,28.30
2018-12-05T03:28:16.783Z,28.50
2018-12-05T03:29:16.744Z,31.20
2018-12-05T03:30:16.732Z,29.90
2018-12-05T03:31:16.809Z,33.10
2018-12-05T03:32:16.713Z,28.60
2018-12-05T03:33:16.705Z,30.50
2018-12-05T03:34:16.728Z,26.60
2018-12-05T03:35:18.610Z,26.80
2018-12-05T03:36:16.675Z,26.40
2018-12-05T03:37:16.655Z,25.80
2018-12-05T03:38:16.646Z,25.70
2018-12-05T03:39:16.638Z,26.90
2018-12-05T03:40:16.657Z,25.50
2018-12-05T03:41:16.616Z,25.80
2018-12-05T03:42:16.605Z,27.20
2018-12-05T03:43:16.593Z,25.00
2018-12-05T03:44:16.593Z,30.60
2018-12-05T03:45:16.577Z,23.70
2018-12-05T03:46:16.590Z,22.60
2018-12-05T03:47:16.552Z,26.80
2018-12-05T03:48:16.546Z,28.70
2018-12-05T03:49:16.526Z,24.10
2018-12-05T03:50:16.558Z,26.60
2018-12-05T03:51:16.507Z,24.30
2018-12-05T03:52:16.515Z,26.60
2018-12-05T03:53:16.491Z,25.30
2018-12-05T03:54:16.479Z,27.40
2018-12-05T03:55:16.465Z,27.80
2018-12-05T03:56:16.488Z,26.50
2018-12-05T03:57:16.467Z,28.00
2018-12-05T03:58:16.436Z,27.20
2018-12-05T03:59:16.425Z,26.70
2018-12-05T04:00:16.425Z,25.20
2018-12-05T04:01:16.400Z,24.60
2018-12-05T04:02:16.511Z,23.20
2018-12-05T04:03:16.382Z,24.40
2018-12-05T04:04:16.366Z,26.30
2018-12-05T04:05:16.363Z,25.10
2018-12-05T04:06:16.354Z,25.40
2018-12-05T04:07:16.375Z,23.10
2018-12-05T04:08:16.333Z,20.90
2018-12-05T04:09:16.323Z,24.40
2018-12-05T04:10:16.314Z,23.60
2018-12-05T04:11:16.299Z,20.80
2018-12-05T04:12:16.291Z,22.80
2018-12-05T04:13:16.294Z,21.40
2018-12-05T04:14:16.263Z,23.40
2018-12-05T04:15:16.254Z,21.30
2018-12-05T04:16:16.240Z,22.50
2018-12-05T04:17:16.236Z,21.50
2018-12-05T04:18:16.224Z,23.90
2018-12-05T04:19:16.233Z,25.90
2018-12-05T04:20:16.207Z,21.40
2018-12-05T04:21:16.186Z,22.90
2018-12-05T04:22:16.209Z,20.90
2018-12-05T04:23:16.168Z,21.10
2018-12-05T04:24:16.165Z,20.60
2018-12-05T04:25:16.151Z,19.80
2018-12-05T04:26:16.151Z,20.90
2018-12-05T04:27:16.143Z,21.00
2018-12-05T04:28:16.116Z,19.70
2018-12-05T04:29:16.131Z,20.00
2018-12-05T04:30:16.098Z,18.20
2018-12-05T04:31:16.085Z,17.30
2018-12-05T04:32:16.079Z,20.80
2018-12-05T04:33:16.060Z,19.10
2018-12-05T04:34:16.052Z,18.40
2018-12-05T04:35:16.059Z,21.80
2018-12-05T04:36:16.028Z,21.20
2018-12-05T04:37:16.048Z,19.00
2018-12-05T04:38:16.011Z,18.80
2018-12-05T04:39:16.002Z,20.70
2018-12-05T04:40:15.991Z,17.80
2018-12-05T04:41:15.978Z,22.50
2018-12-05T04:42:15.973Z,18.40
2018-12-05T04:43:15.983Z,18.90
2018-12-05T04:44:15.951Z,19.40
2018-12-05T04:45:15.932Z,18.60
2018-12-05T04:46:15.928Z,23.60
2018-12-05T04:47:15.915Z,16.40
2018-12-05T04:48:15.899Z,21.30
2018-12-05T04:49:15.913Z,15.30
2018-12-05T04:50:15.890Z,21.40
2018-12-05T04:51:15.871Z,18.30
2018-12-05T04:52:15.881Z,22.70
2018-12-05T04:53:15.881Z,19.80
2018-12-05T04:54:15.840Z,20.40
2018-12-05T04:55:15.831Z,18.60
2018-12-05T04:56:15.821Z,19.80
2018-12-05T04:57:15.804Z,21.90
2018-12-05T04:58:15.795Z,20.10
2018-12-05T04:59:15.810Z,21.00
2018-12-05T05:00:15.782Z,21.60
2018-12-05T05:01:15.764Z,21.90
2018-12-05T05:02:15.756Z,22.50
2018-12-05T05:03:15.742Z,25.90
2018-12-05T05:04:15.733Z,24.80
2018-12-05T05:05:15.843Z,25.10
2018-12-05T05:06:15.713Z,23.10
2018-12-05T05:07:15.703Z,26.80
2018-12-05T05:08:15.693Z,21.40
2018-12-05T05:09:15.677Z,22.90
2018-12-05T05:10:15.671Z,21.90
2018-12-05T05:11:15.675Z,25.30
2018-12-05T05:12:15.662Z,24.50
2018-12-05T05:13:15.649Z,25.60
2018-12-05T05:14:15.627Z,23.20
2018-12-05T05:15:15.615Z,25.00
2018-12-05T05:16:15.602Z,20.30
2018-12-05T05:17:15.617Z,22.10
2018-12-05T05:18:15.589Z,27.40
2018-12-05T05:19:15.576Z,22.90
2018-12-05T05:20:15.567Z,25.90
2018-12-05T05:21:15.551Z,29.30
2018-12-05T05:22:15.560Z,26.40
2018-12-05T05:23:15.533Z,28.40
2018-12-05T05:24:15.520Z,25.60
2018-12-05T05:25:15.513Z,29.20
2018-12-05T05:26:15.501Z,25.00
2018-12-05T05:27:15.510Z,27.80
2018-12-05T05:28:15.485Z,24.50
2018-12-05T05:29:15.465Z,27.90
2018-12-05T05:30:15.457Z,27.80
2018-12-05T05:31:15.454Z,31.70
2018-12-05T05:32:15.457Z,28.30
2018-12-05T05:33:15.425Z,26.30
2018-12-05T05:34:15.413Z,28.10
2018-12-05T05:35:15.403Z,24.00
2018-12-05T05:36:15.391Z,26.20
2018-12-05T05:37:15.403Z,25.20
2018-12-05T05:38:15.380Z,26.40
2018-12-05T05:39:15.366Z,26.60
2018-12-05T05:40:15.354Z,23.00
2018-12-05T05:41:15.362Z,26.70
2018-12-05T05:42:15.329Z,30.40
2018-12-05T05:43:15.316Z,25.50
2018-12-05T05:44:15.306Z,31.80
2018-12-05T05:45:15.303Z,30.10
2018-12-05T05:46:15.288Z,31.40
2018-12-05T05:47:15.295Z,29.20
2018-12-05T05:48:15.266Z,30.10
2018-12-05T05:49:15.259Z,31.10
2018-12-05T05:50:15.246Z,27.80
2018-12-05T05:51:15.236Z,30.00
2018-12-05T05:52:15.245Z,26.20
2018-12-05T05:53:15.209Z,33.10
2018-12-05T05:54:15.201Z,28.10
2018-12-05T05:55:15.190Z,31.90
2018-12-05T05:56:15.177Z,25.10
2018-12-05T05:57:15.192Z,27.90
2018-12-05T05:58:15.160Z,27.70
2018-12-05T05:59:15.150Z,29.20
2018-12-05T06:00:15.145Z,24.00
2018-12-05T06:01:15.124Z,24.20
2018-12-05T06:02:15.133Z,24.00
2018-12-05T06:03:15.108Z,27.20
2018-12-05T06:04:15.099Z,25.70
2018-12-05T06:05:15.083Z,26.40
2018-12-05T06:06:15.075Z,26.90
2018-12-05T06:07:15.094Z,28.60
2018-12-05T06:08:15.052Z,23.20
2018-12-05T06:09:15.046Z,23.30
2018-12-05T06:10:15.037Z,23.80
2018-12-05T06:11:15.024Z,22.60
2018-12-05T06:12:15.014Z,18.90
2018-12-05T06:13:15.015Z,23.70
2018-12-05T06:14:14.988Z,16.40
2018-12-05T06:15:14.978Z,19.00
2018-12-05T06:16:14.965Z,19.30
2018-12-05T06:17:14.972Z,19.00
2018-12-05T06:18:14.973Z,18.40
2018-12-05T06:19:14.941Z,19.30
2018-12-05T06:20:14.923Z,18.00
2018-12-05T06:21:14.919Z,17.30
2018-12-05T06:22:14.960Z,16.60
2018-12-05T06:23:14.896Z,15.80
2018-12-05T06:24:14.906Z,18.00
2018-12-05T06:25:14.875Z,19.70
2018-12-05T06:26:14.861Z,18.40
2018-12-05T06:27:14.850Z,16.10
2018-12-05T06:28:14.856Z,14.90
2018-12-05T06:29:14.852Z,20.00
2018-12-05T06:30:14.821Z,16.50
2018-12-05T06:31:14.810Z,23.50
2018-12-05T06:32:14.805Z,14.50
2018-12-05T06:33:14.801Z,18.00
2018-12-05T06:34:14.776Z,20.20
2018-12-05T06:35:14.803Z,16.00
2018-12-05T06:36:14.786Z,17.10
2018-12-05T06:37:14.742Z,16.50
2018-12-05T06:38:14.740Z,17.00
2018-12-05T06:39:14.739Z,17.40
2018-12-05T06:40:14.710Z,15.10
2018-12-05T06:41:14.706Z,18.70
2018-12-05T06:42:14.718Z,14.80
2018-12-05T06:43:14.683Z,18.40
2018-12-05T06:44:14.674Z,15.70
2018-12-05T06:45:14.656Z,18.70
2018-12-05T06:46:14.683Z,16.80
2018-12-05T06:47:14.638Z,14.00
2018-12-05T06:48:14.644Z,15.50
2018-12-05T06:49:14.624Z,14.10
2018-12-05T06:50:14.644Z,13.80
2018-12-05T06:51:14.595Z,17.20
2018-12-05T06:52:14.598Z,16.20
2018-12-05T06:53:14.596Z,13.20
2018-12-05T06:54:14.565Z,17.10
2018-12-05T06:55:14.576Z,17.50
2018-12-05T06:56:14.669Z,14.80
2018-12-05T06:57:14.530Z,13.90
2018-12-05T06:58:14.550Z,16.20
2018-12-05T06:59:14.508Z,14.50
2018-12-05T07:00:14.520Z,15.10
2018-12-05T07:01:14.493Z,12.00
2018-12-05T07:02:14.480Z,17.10
2018-12-05T07:03:14.469Z,16.60
2018-12-05T07:04:14.460Z,20.10
2018-12-05T07:05:14.443Z,15.90
2018-12-05T07:06:14.452Z,13.30
2018-12-05T07:07:14.427Z,15.80
2018-12-05T07:08:14.437Z,15.30
2018-12-05T07:09:14.401Z,14.00
2018-12-05T07:10:14.392Z,16.50
2018-12-05T07:11:14.382Z,15.20
2018-12-05T07:12:14.369Z,17.60
2018-12-05T07:13:14.389Z,13.00
2018-12-05T07:14:14.351Z,20.30
2018-12-05T07:15:14.347Z,16.10
2018-12-05T07:16:14.340Z,14.80
2018-12-05T07:17:14.315Z,13.90
2018-12-05T07:18:14.306Z,15.80
2018-12-05T07:19:14.318Z,16.10
2018-12-05T07:20:14.283Z,12.80
2018-12-05T07:21:14.278Z,12.60
2018-12-05T07:22:14.266Z,17.40
2018-12-05T07:23:14.253Z,14.30
2018-12-05T07:24:14.278Z,13.30
2018-12-05T07:25:14.261Z,15.60
2018-12-05T07:26:14.225Z,17.20
2018-12-05T07:27:14.216Z,16.80
2018-12-05T07:28:14.205Z,11.60
2018-12-05T07:29:14.188Z,14.60
2018-12-05T07:30:14.180Z,14.80
2018-12-05T07:31:14.186Z,17.70
2018-12-05T07:32:14.170Z,12.50
2018-12-05T07:33:14.156Z,13.40
2018-12-05T07:34:14.156Z,15.10
2018-12-05T07:35:14.128Z,15.50
2018-12-05T07:36:14.121Z,15.20
2018-12-05T07:37:14.120Z,13.70
2018-12-05T07:38:19.468Z,15.60
2018-12-05T07:39:15.106Z,16.30
2018-12-05T07:40:14.079Z,14.60
2018-12-05T07:41:14.083Z,13.00
2018-12-05T07:42:14.051Z,14.10
2018-12-05T07:43:14.040Z,17.70
2018-12-05T07:44:14.028Z,14.90
2018-12-05T07:45:14.024Z,15.90
2018-12-05T07:46:14.014Z,13.20
2018-12-05T07:47:14.020Z,17.00
2018-12-05T07:48:14.010Z,18.00
2018-12-05T07:49:13.997Z,15.30
2018-12-05T07:50:13.967Z,13.50
2018-12-05T07:51:13.955Z,12.60
2018-12-05T07:52:13.943Z,14.60
2018-12-05T07:53:13.940Z,15.00
2018-12-05T07:54:13.943Z,15.90
2018-12-05T07:55:13.912Z,15.10
2018-12-05T07:56:13.909Z,17.10
2018-12-05T07:57:13.896Z,17.10
2018-12-05T07:58:13.919Z,18.20
2018-12-05T07:59:13.904Z,17.70
2018-12-05T08:00:13.865Z,15.50
2018-12-05T08:01:13.848Z,13.40
2018-12-05T08:02:13.838Z,14.90
2018-12-05T08:03:13.835Z,14.60
2018-12-05T08:04:13.814Z,16.10
2018-12-05T08:05:13.830Z,13.20
2018-12-05T08:06:13.798Z,13.00
2018-12-05T08:07:13.788Z,16.50
2018-12-05T08:08:13.779Z,14.50
2018-12-05T08:09:13.783Z,14.80
2018-12-05T08:10:13.760Z,14.40
2018-12-05T08:11:13.763Z,16.40
2018-12-05T08:12:13.737Z,16.60
2018-12-05T08:13:13.736Z,15.30
2018-12-05T08:14:13.729Z,13.80
2018-12-05T08:15:13.701Z,14.40
2018-12-05T08:16:13.687Z,12.90
2018-12-05T08:17:13.683Z,15.70
2018-12-05T08:18:13.671Z,17.20
2018-12-05T08:19:13.690Z,15.00
2018-12-05T08:20:13.684Z,12.60
2018-12-05T08:21:13.635Z,14.80
2018-12-05T08:22:13.626Z,14.90
2018-12-05T08:23:13.619Z,15.10
2018-12-05T08:24:13.602Z,11.90
2018-12-05T08:25:13.616Z,13.80
2018-12-05T08:26:13.585Z,12.20
2018-12-05T08:27:13.572Z,10.30
2018-12-05T08:28:13.596Z,14.70
2018-12-05T08:29:13.555Z,12.60
2018-12-05T08:30:13.566Z,11.10
2018-12-05T08:31:13.533Z,11.60
2018-12-05T08:32:13.544Z,12.50
2018-12-05T08:33:13.506Z,11.90
2018-12-05T08:34:13.498Z,11.30
2018-12-05T08:35:13.511Z,10.70
2018-12-05T08:36:13.479Z,9.00
2018-12-05T08:37:13.471Z,10.90
2018-12-05T08:38:13.484Z,11.90
2018-12-05T08:39:13.449Z,14.10
2018-12-05T08:40:13.442Z,12.10
2018-12-05T08:41:13.421Z,9.90
2018-12-05T08:42:13.413Z,9.60
2018-12-05T08:43:13.405Z,9.10
2018-12-05T08:44:13.414Z,10.90
2018-12-05T08:45:13.397Z,12.30
2018-12-05T08:46:13.370Z,10.90
2018-12-05T08:47:13.359Z,11.50
2018-12-05T08:48:13.372Z,13.60
2018-12-05T08:49:13.344Z,10.00
2018-12-05T08:50:13.330Z,12.10
2018-12-05T08:51:13.319Z,9.80
2018-12-05T08:52:13.314Z,10.40
2018-12-05T08:53:13.310Z,13.00
2018-12-05T08:54:13.284Z,9.50
2018-12-05T08:55:13.306Z,14.40
2018-12-05T08:56:13.260Z,13.40
2018-12-05T08:57:13.257Z,13.60
2018-12-05T08:58:13.266Z,12.50
2018-12-05T08:59:13.231Z,9.00
2018-12-05T09:00:13.218Z,9.00
2018-12-05T09:01:13.213Z,10.70
2018-12-05T09:02:13.207Z,9.90
2018-12-05T09:03:13.188Z,8.10
2018-12-05T09:04:13.197Z,9.20
2018-12-05T09:05:13.186Z,10.70
2018-12-05T09:06:13.157Z,9.60
2018-12-05T09:07:13.141Z,9.90
2018-12-05T09:08:13.136Z,7.70
2018-12-05T09:09:13.124Z,9.40
2018-12-05T09:10:13.121Z,11.10
2018-12-05T09:11:13.121Z,8.60
2018-12-05T09:12:13.090Z,7.60
2018-12-05T09:13:13.082Z,11.20
2018-12-05T09:14:13.065Z,8.70
2018-12-05T09:15:13.063Z,7.50
2018-12-05T09:16:13.066Z,9.70
2018-12-05T09:17:13.037Z,12.70
2018-12-05T09:18:13.039Z,8.70
2018-12-05T09:19:13.012Z,12.00
2018-12-05T09:20:13.003Z,8.90
2018-12-05T09:21:13.442Z,8.80
2018-12-05T09:22:12.986Z,9.60
2018-12-05T09:23:13.005Z,10.50
2018-12-05T09:24:12.962Z,10.20
2018-12-05T09:25:12.952Z,11.60
2018-12-05T09:26:12.936Z,7.90
2018-12-05T09:27:12.930Z,9.70
2018-12-05T09:28:12.920Z,8.50
2018-12-05T09:29:12.929Z,11.20
2018-12-05T09:30:12.901Z,11.80
2018-12-05T09:31:12.883Z,9.30
2018-12-05T09:32:12.875Z,11.00
2018-12-05T09:33:12.896Z,8.10
2018-12-05T09:34:12.859Z,9.20
2018-12-05T09:35:12.847Z,10.00
2018-12-05T09:36:12.836Z,9.70
2018-12-05T09:37:12.829Z,12.90
2018-12-05T09:38:12.809Z,9.80
2018-12-05T09:39:12.825Z,13.30
2018-12-05T09:40:12.789Z,10.90
2018-12-05T09:41:12.781Z,10.80
2018-12-05T09:42:12.773Z,10.40
2018-12-05T09:43:12.839Z,8.30
2018-12-05T09:44:12.749Z,9.70
2018-12-05T09:45:12.761Z,11.90
2018-12-05T09:46:12.728Z,8.80
2018-12-05T09:47:15.836Z,7.20
2018-12-05T09:48:12.750Z,8.80
2018-12-05T09:49:12.695Z,10.50
2018-12-05T09:50:12.681Z,10.50
2018-12-05T09:51:12.688Z,13.70
2018-12-05T09:52:12.664Z,11.50
2018-12-05T09:53:12.654Z,11.70
2018-12-05T09:54:12.648Z,10.40
2018-12-05T09:55:12.634Z,9.70
2018-12-05T09:56:12.641Z,10.50
2018-12-05T09:57:12.608Z,13.20
2018-12-05T09:58:12.595Z,10.80
2018-12-05T09:59:12.586Z,10.30
2018-12-05T10:00:12.576Z,11.90
2018-12-05T10:01:12.594Z,11.60
2018-12-05T10:02:12.559Z,11.20
2018-12-05T10:03:12.542Z,13.60
2018-12-05T10:04:12.558Z,12.80
2018-12-05T10:05:12.525Z,11.00
2018-12-05T10:06:12.516Z,9.20
2018-12-05T10:07:12.537Z,13.00
2018-12-05T10:08:12.492Z,12.20
2018-12-05T10:09:12.489Z,12.90
2018-12-05T10:10:12.467Z,10.20
2018-12-05T10:11:12.458Z,12.40
2018-12-05T10:12:12.447Z,12.50
2018-12-05T10:13:12.456Z,12.70
2018-12-05T10:14:12.430Z,11.40
2018-12-05T10:15:12.419Z,12.60
2018-12-05T10:16:12.405Z,12.70
2018-12-05T10:17:12.393Z,10.60
2018-12-05T10:18:12.399Z,11.80
2018-12-05T10:19:12.377Z,12.40
2018-12-05T10:20:12.364Z,12.70
2018-12-05T10:21:12.350Z,11.10
2018-12-05T10:22:12.336Z,12.30
2018-12-05T10:23:12.344Z,8.90
2018-12-05T10:24:12.317Z,12.30
2018-12-05T10:25:12.317Z,11.30
2018-12-05T10:26:12.318Z,11.50
2018-12-05T10:27:12.289Z,12.50
2018-12-05T10:28:12.315Z,10.70
2018-12-05T10:29:12.267Z,11.90
2018-12-05T10:30:12.257Z,9.80
2018-12-05T10:31:12.240Z,11.30
2018-12-05T10:32:12.248Z,10.10
2018-12-05T10:33:12.222Z,9.00
2018-12-05T10:34:12.258Z,12.60
2018-12-05T10:35:12.197Z,11.60
2018-12-05T10:36:12.191Z,10.60
2018-12-05T10:37:12.178Z,11.70
2018-12-05T10:38:12.195Z,10.00
2018-12-05T10:39:12.160Z,11.40
2018-12-05T10:40:12.146Z,10.30
2018-12-05T10:41:12.135Z,15.60
2018-12-05T10:42:12.125Z,9.10
2018-12-05T10:43:12.112Z,9.60
2018-12-05T10:44:12.127Z,10.00
2018-12-05T10:45:12.093Z,10.20
2018-12-05T10:46:12.086Z,11.00
2018-12-05T10:47:12.075Z,9.70
2018-12-05T10:48:12.061Z,9.70
2018-12-05T10:49:12.048Z,11.00
2018-12-05T10:50:12.058Z,7.60
2018-12-05T10:51:12.031Z,9.00
2018-12-05T10:52:12.017Z,8.80
2018-12-05T10:53:12.007Z,10.10
2018-12-05T10:54:11.992Z,11.50
2018-12-05T10:55:11.982Z,9.70
2018-12-05T10:56:11.989Z,8.70
2018-12-05T10:57:11.970Z,8.30
2018-12-05T10:58:11.978Z,11.00
2018-12-05T10:59:11.948Z,11.10
2018-12-05T11:00:11.931Z,13.30
2018-12-05T11:01:11.919Z,10.40
2018-12-05T11:02:11.906Z,10.00
2018-12-05T11:03:11.918Z,12.90
2018-12-05T11:04:11.887Z,12.30
2018-12-05T11:05:11.890Z,10.50
2018-12-05T11:06:11.945Z,11.20
2018-12-05T11:07:11.853Z,10.90
2018-12-05T11:08:11.843Z,11.60
2018-12-05T11:09:11.852Z,14.30
2018-12-05T11:10:11.827Z,10.20
2018-12-05T11:11:11.815Z,11.00
2018-12-05T11:12:11.803Z,11.00
2018-12-05T11:13:11.789Z,11.70
2018-12-05T11:14:11.802Z,10.60
2018-12-05T11:15:11.766Z,11.80
2018-12-05T11:16:11.760Z,12.00
2018-12-05T11:17:11.749Z,10.90
2018-12-05T11:18:11.740Z,12.30
2018-12-05T11:19:11.730Z,12.60
2018-12-05T11:20:11.741Z,12.80
2018-12-05T11:21:11.708Z,12.30
2018-12-05T11:22:11.690Z,11.80
2018-12-05T11:23:11.687Z,10.20
2018-12-05T11:24:11.672Z,8.90
2018-12-05T11:25:11.659Z,10.60
2018-12-05T11:26:11.669Z,9.10
2018-12-05T11:27:11.637Z,11.00
2018-12-05T11:28:11.633Z,9.20
2018-12-05T11:29:11.626Z,8.50
2018-12-05T11:30:11.611Z,10.30
2018-12-05T11:31:11.599Z,12.70
2018-12-05T11:32:11.611Z,9.90
2018-12-05T11:33:11.573Z,10.60
2018-12-05T11:34:11.560Z,9.60
2018-12-05T11:35:11.549Z,11.50
2018-12-05T11:36:11.541Z,10.00
2018-12-05T11:37:11.532Z,9.90
2018-12-05T11:38:11.547Z,11.10
2018-12-05T11:39:11.512Z,8.00
2018-12-05T11:40:11.498Z,9.30
2018-12-05T11:41:11.494Z,9.80
2018-12-05T11:42:11.481Z,9.20
2018-12-05T11:43:11.470Z,16.10
2018-12-05T11:44:11.479Z,9.40
2018-12-05T11:45:11.443Z,9.40
2018-12-05T11:46:11.431Z,10.70
2018-12-05T11:47:11.421Z,9.50
2018-12-05T11:48:11.411Z,9.90
2018-12-05T11:49:11.402Z,10.50
2018-12-05T11:50:11.422Z,10.60
2018-12-05T11:51:11.385Z,11.20
2018-12-05T11:52:11.382Z,10.40
2018-12-05T11:53:11.358Z,9.80
2018-12-05T11:54:11.344Z,10.90
2018-12-05T11:55:11.340Z,9.00
2018-12-05T11:56:11.346Z,11.40
2018-12-05T11:57:11.315Z,10.00
2018-12-05T11:58:11.302Z,9.80
2018-12-05T11:59:11.318Z,8.20
2018-12-05T12:00:11.283Z,10.50
2018-12-05T12:01:11.274Z,11.00
2018-12-05T12:02:11.265Z,10.50
2018-12-05T12:03:11.254Z,10.70
2018-12-05T12:04:11.241Z,11.60
2018-12-05T12:05:11.246Z,10.80
2018-12-05T12:06:11.215Z,8.30
2018-12-05T12:07:11.226Z,8.60
2018-12-05T12:08:11.196Z,13.10
2018-12-05T12:09:11.190Z,10.60
2018-12-05T12:10:11.188Z,11.10
2018-12-05T12:11:11.195Z,9.10
2018-12-05T12:12:11.158Z,12.80
2018-12-05T12:13:11.145Z,10.90
2018-12-05T12:14:11.138Z,10.10
2018-12-05T12:15:11.127Z,10.30
2018-12-05T12:16:11.113Z,10.40
2018-12-05T12:17:11.123Z,8.50
2018-12-05T12:18:11.087Z,9.10
2018-12-05T12:19:11.077Z,9.80
2018-12-05T12:20:11.067Z,12.00
2018-12-05T12:21:11.059Z,10.40
2018-12-05T12:22:11.050Z,12.20
2018-12-05T12:23:11.057Z,11.70
2018-12-05T12:24:11.027Z,10.90
2018-12-05T12:25:11.014Z,11.50
2018-12-05T12:26:11.000Z,10.00
2018-12-05T12:27:10.996Z,11.10
2018-12-05T12:28:11.008Z,9.90
2018-12-05T12:29:10.974Z,12.20
2018-12-05T12:30:15.831Z,11.30
2018-12-05T12:31:11.948Z,11.00
2018-12-05T12:32:10.970Z,10.50
2018-12-05T12:33:10.938Z,9.50
2018-12-05T12:34:10.953Z,10.80
2018-12-05T12:35:10.910Z,11.20
2018-12-05T12:36:10.900Z,11.20
2018-12-05T12:37:10.885Z,10.40
2018-12-05T12:38:10.872Z,10.40
2018-12-05T12:39:10.859Z,10.70
2018-12-05T12:40:10.876Z,12.70
2018-12-05T12:41:10.845Z,9.80
2018-12-05T12:42:10.835Z,12.60
2018-12-05T12:43:10.816Z,9.00
2018-12-05T12:44:10.808Z,14.20
2018-12-05T12:45:10.798Z,12.60
2018-12-05T12:46:10.809Z,11.90
2018-12-05T12:47:10.787Z,13.00
2018-12-05T12:48:10.775Z,9.90
2018-12-05T12:49:10.779Z,11.50
2018-12-05T12:50:10.741Z,10.30
2018-12-05T12:51:10.729Z,12.40
2018-12-05T12:52:10.721Z,11.20
2018-12-05T12:53:10.713Z,12.10
2018-12-05T12:54:10.705Z,13.20
2018-12-05T12:55:10.718Z,11.20